Rochester, NY (14612)

6:57 AM EDT on September 01, 2015 (GMT -0400)
Belmore Station | | Change Station
CLOSE
Current Station
Personal Weather Station
Location: Rochester, NY
Elevation: 269 ft
Nearby Weather Stations

Elev 269 ft 43.26 °N, 77.69 °W | Updated 10 seconds ago

Overcast
Overcast
68.7 °F
Feels Like 68.7 °F
N
1.6
Wind Variable Wind from West
Gusts 3.1 mph

Today
High -- | Low -- °F
--% Chance of Precip.
Yesterday
High -- | Low -- °F
Precip. -- in
6:34 AM 7:46 PM
Waning Gibbous, 89% visible
Pressure 30.08 in
Visibility 1.5 miles
Clouds Overcast 900 ft
Dew Point 68 °F
Humidity 99%
Rainfall 0.00 in
Snow Depth Not available.
UV 0 out of 12
Pollen 10.50 out of 12
Air Quality Not available.
Flu Activity Not available.
METAR KROC 011054Z 25006KT 1 1/2SM BR OVC009 21/19 A3008 RMK AO2 SFC VIS 2 SLP184 T02060189
Pressure 30.08 in
Visibility 1.5 miles
Clouds Overcast 900 ft
Dew Point 68 °F
Humidity 99%
Rainfall 0.00 in
Snow Depth Not available.
UV 0 out of 12
Pollen 10.50 out of 12
Air Quality Not available.
Flu Activity Not available.
METAR KROC 011054Z 25006KT 1 1/2SM BR OVC009 21/19 A3008 RMK AO2 SFC VIS 2 SLP184 T02060189

10-Day Weather Forecast

×

Almanac

Astronomy

Sep. 01, 2015 Rise Set
Actual Time
Civil Twilight
Nautical Twilight
Astronomical Twilight
Moon
Length of Visible Light
Length of Day
Tomorrow will be .
, % of the Moon is Illuminated

Today's Extremes

State Highs State Lows

Community

WunderPhotos

Upload Photos

1,851,501 photos uploaded!

WunderBlogs® & News

Nearby

Air Quality

  Air Quality AQ Index Pollutant
Not available.

Snow Depth

Station Depth Elevation

Earthquake Activity

City Distance Mag. Time & Date
Minimum magnitude displayed is 2.5.

Coastal Water Temperatures

Place Temperature

Stations

Nearby Weather Stations

Station Location Temp. Windchill Dew Point Humidity Wind Precip. Elev Updated Type